createdAt,value
2022-10-17T00:00:55.075Z,13.90
2022-10-17T00:03:23.104Z,13.60
2022-10-17T00:05:51.157Z,13.60
2022-10-17T00:08:19.825Z,13.70
2022-10-17T00:10:56.173Z,13.80
2022-10-17T00:13:25.980Z,13.90
2022-10-17T00:15:54.251Z,13.90
2022-10-17T00:18:22.732Z,14.00
2022-10-17T00:20:51.126Z,14.00
2022-10-17T00:23:19.447Z,14.10
2022-10-17T00:25:47.389Z,14.00
2022-10-17T00:28:17.189Z,14.00
2022-10-17T00:30:46.500Z,14.00
2022-10-17T00:33:14.417Z,14.00
2022-10-17T00:35:42.441Z,13.90
2022-10-17T00:38:10.401Z,13.80
2022-10-17T00:40:38.396Z,13.80
2022-10-17T00:43:07.460Z,13.80
2022-10-17T00:45:35.481Z,13.70
2022-10-17T00:48:08.500Z,13.60
2022-10-17T00:50:39.794Z,13.70
2022-10-17T00:53:09.449Z,13.80
2022-10-17T00:55:43.804Z,13.90
2022-10-17T00:58:12.018Z,13.90
2022-10-17T01:00:40.087Z,13.90
2022-10-17T01:03:09.556Z,13.90
2022-10-17T01:05:38.106Z,13.90
2022-10-17T01:08:06.383Z,13.80
2022-10-17T01:10:43.137Z,13.80
2022-10-17T01:13:17.192Z,13.80
2022-10-17T01:15:55.483Z,13.80
2022-10-17T01:18:40.859Z,13.80
2022-10-17T01:21:39.743Z,13.80
2022-10-17T01:24:42.853Z,13.80
2022-10-17T01:27:59.500Z,13.70
2022-10-17T01:30:59.602Z,13.80
2022-10-17T01:33:40.047Z,13.70
2022-10-17T01:36:13.802Z,13.30
2022-10-17T01:38:48.404Z,13.40
2022-10-17T01:41:26.421Z,13.50
2022-10-17T01:44:00.633Z,13.60
2022-10-17T01:46:34.613Z,13.60
2022-10-17T01:49:03.776Z,13.70
2022-10-17T01:51:36.259Z,13.60
2022-10-17T01:54:10.573Z,13.60
2022-10-17T01:56:41.175Z,13.50
2022-10-17T01:59:14.203Z,13.50
2022-10-17T02:01:45.976Z,13.40
2022-10-17T02:04:13.973Z,13.40
2022-10-17T02:06:42.024Z,13.50
2022-10-17T02:09:22.086Z,13.60
2022-10-17T02:12:07.925Z,13.60
2022-10-17T02:14:47.700Z,13.60
2022-10-17T02:17:24.552Z,13.50
2022-10-17T02:20:02.890Z,13.60
2022-10-17T02:22:38.665Z,13.60
2022-10-17T02:25:13.464Z,13.60
2022-10-17T02:27:49.550Z,13.70
2022-10-17T02:30:26.277Z,13.60
2022-10-17T02:33:02.787Z,13.60
2022-10-17T02:35:34.847Z,13.60
2022-10-17T02:38:04.626Z,13.50
2022-10-17T02:40:33.296Z,13.60
2022-10-17T02:43:01.931Z,13.60
2022-10-17T02:45:35.848Z,13.60
2022-10-17T02:48:09.829Z,13.50
2022-10-17T02:50:45.708Z,13.50
2022-10-17T02:53:16.675Z,13.50
2022-10-17T02:55:52.032Z,13.50
2022-10-17T02:58:25.013Z,13.50
2022-10-17T03:00:54.288Z,13.40
2022-10-17T03:03:26.536Z,13.50
2022-10-17T03:05:55.219Z,13.40
2022-10-17T03:08:23.593Z,13.20
2022-10-17T03:10:51.995Z,13.30
2022-10-17T03:13:20.555Z,13.30
2022-10-17T03:15:48.676Z,13.20
2022-10-17T03:18:16.648Z,13.20
2022-10-17T03:20:45.988Z,13.20
2022-10-17T03:23:14.040Z,13.30
2022-10-17T03:25:42.108Z,13.40
2022-10-17T03:28:10.665Z,13.30
2022-10-17T03:30:39.936Z,13.40
2022-10-17T03:33:07.885Z,13.40
2022-10-17T03:35:39.268Z,13.40
2022-10-17T03:38:08.597Z,13.40
2022-10-17T03:40:36.526Z,13.40
2022-10-17T03:43:05.571Z,13.40
2022-10-17T03:45:33.608Z,13.40
2022-10-17T03:48:01.800Z,13.40
2022-10-17T03:50:29.763Z,13.40
2022-10-17T03:52:57.744Z,13.30
2022-10-17T03:55:27.139Z,13.40
2022-10-17T03:57:55.113Z,13.30
2022-10-17T04:00:23.156Z,13.30
2022-10-17T04:02:51.154Z,13.20
2022-10-17T04:05:19.126Z,13.20
2022-10-17T04:07:47.063Z,13.20
2022-10-17T04:10:15.069Z,13.20
2022-10-17T04:12:44.457Z,13.20
2022-10-17T04:15:12.953Z,13.30
2022-10-17T04:17:40.906Z,13.20
2022-10-17T04:20:09.828Z,13.20
2022-10-17T04:22:37.900Z,13.20
2022-10-17T04:25:06.923Z,13.20
2022-10-17T04:27:35.075Z,13.10
2022-10-17T04:30:04.657Z,13.00
2022-10-17T04:32:33.281Z,13.00
2022-10-17T04:35:01.259Z,13.10
2022-10-17T04:37:30.573Z,13.10
2022-10-17T04:39:58.509Z,13.00
2022-10-17T04:42:26.619Z,13.10
2022-10-17T04:44:54.597Z,13.10
2022-10-17T04:47:23.921Z,13.10
2022-10-17T04:49:51.925Z,13.10
2022-10-17T04:52:20.170Z,13.00
2022-10-17T04:54:48.133Z,12.90
2022-10-17T04:57:16.121Z,13.00
2022-10-17T04:59:44.196Z,12.90
2022-10-17T05:02:12.266Z,12.90
2022-10-17T05:04:41.631Z,12.90
2022-10-17T05:07:10.014Z,12.60
2022-10-17T05:09:38.088Z,12.50
2022-10-17T05:12:09.461Z,12.40
2022-10-17T05:14:38.432Z,12.40
2022-10-17T05:17:06.370Z,12.40
2022-10-17T05:19:34.386Z,12.10
2022-10-17T05:22:03.695Z,12.00
2022-10-17T05:24:31.751Z,11.90
2022-10-17T05:27:02.141Z,11.90
2022-10-17T05:29:30.099Z,11.90
2022-10-17T05:34:28.114Z,12.10
2022-10-17T05:36:56.100Z,12.20
2022-10-17T05:39:25.410Z,12.20
2022-10-17T05:41:53.418Z,12.30
2022-10-17T05:44:21.443Z,12.30
2022-10-17T05:46:49.939Z,12.10
2022-10-17T05:49:32.006Z,11.90
2022-10-17T05:52:01.186Z,12.00
2022-10-17T05:54:30.596Z,12.00
2022-10-17T05:56:58.953Z,12.00
2022-10-17T05:59:27.926Z,12.00
2022-10-17T06:01:56.294Z,12.00
2022-10-17T06:04:24.526Z,12.00
2022-10-17T06:06:52.506Z,12.10
2022-10-17T06:09:20.619Z,12.20
2022-10-17T06:11:49.976Z,12.30
2022-10-17T06:14:18.133Z,12.20
2022-10-17T06:16:46.071Z,12.20
2022-10-17T06:19:14.080Z,12.20
2022-10-17T06:21:42.076Z,12.30
2022-10-17T06:24:10.124Z,12.30
2022-10-17T06:26:38.207Z,12.20
2022-10-17T06:29:07.650Z,12.10
2022-10-17T06:31:35.630Z,12.00
2022-10-17T06:34:03.623Z,11.90
2022-10-17T06:36:31.673Z,11.90
2022-10-17T06:38:59.612Z,12.10
2022-10-17T06:41:27.630Z,12.10
2022-10-17T06:43:55.593Z,11.90
2022-10-17T06:46:26.788Z,11.90
2022-10-17T06:48:54.797Z,11.90
2022-10-17T06:51:22.769Z,11.90
2022-10-17T06:53:50.876Z,11.90
2022-10-17T06:56:19.447Z,12.00
2022-10-17T06:58:49.440Z,12.00
2022-10-17T07:01:17.420Z,12.00
2022-10-17T07:03:49.738Z,12.10
2022-10-17T07:06:18.070Z,12.20
2022-10-17T07:08:47.070Z,12.20
2022-10-17T07:11:18.042Z,12.40
2022-10-17T07:13:46.360Z,12.30
2022-10-17T07:16:15.170Z,12.40
2022-10-17T07:18:43.888Z,12.30
2022-10-17T07:21:13.181Z,12.20
2022-10-17T07:23:41.587Z,12.20
2022-10-17T07:26:11.933Z,12.30
2022-10-17T07:28:42.033Z,12.30
2022-10-17T07:31:12.595Z,12.30
2022-10-17T07:33:40.599Z,12.40
2022-10-17T07:36:08.838Z,12.50
2022-10-17T07:38:38.578Z,12.60
2022-10-17T07:41:08.857Z,12.70
2022-10-17T07:43:37.235Z,12.70
2022-10-17T07:46:06.647Z,12.80
2022-10-17T07:48:34.902Z,12.90
2022-10-17T07:51:04.563Z,12.90
2022-10-17T07:53:32.595Z,12.90
2022-10-17T07:56:06.661Z,13.00
2022-10-17T07:58:35.016Z,13.00
2022-10-17T08:01:04.207Z,12.90
2022-10-17T08:03:32.249Z,12.90
2022-10-17T08:06:00.653Z,13.10
2022-10-17T08:08:29.240Z,13.10
2022-10-17T08:11:02.349Z,13.20
2022-10-17T08:13:31.826Z,13.30
2022-10-17T08:16:01.520Z,13.40
2022-10-17T08:18:29.703Z,13.50
2022-10-17T08:21:00.968Z,13.50
2022-10-17T08:23:29.732Z,13.60
2022-10-17T08:26:00.993Z,13.60
2022-10-17T08:28:29.253Z,13.70
2022-10-17T08:31:05.756Z,13.70
2022-10-17T08:33:34.235Z,13.80
2022-10-17T08:36:02.854Z,13.80
2022-10-17T08:38:35.128Z,13.90
2022-10-17T08:41:06.842Z,14.00
2022-10-17T08:43:48.269Z,14.00
2022-10-17T08:46:18.456Z,14.10
2022-10-17T08:48:49.260Z,14.20
2022-10-17T08:51:21.121Z,14.30
2022-10-17T08:53:53.063Z,14.30
2022-10-17T08:56:43.998Z,14.40
2022-10-17T08:59:18.207Z,14.40
2022-10-17T09:01:51.391Z,14.50
2022-10-17T09:04:43.515Z,14.50
2022-10-17T09:07:20.256Z,14.60
2022-10-17T09:09:56.593Z,14.60
2022-10-17T09:12:31.687Z,14.70
2022-10-17T09:15:12.168Z,14.70
2022-10-17T09:17:52.634Z,14.80
2022-10-17T09:20:24.852Z,14.80
2022-10-17T09:22:58.271Z,14.90
2022-10-17T09:25:27.081Z,14.90
2022-10-17T09:28:00.393Z,15.00
2022-10-17T09:30:45.037Z,15.00
2022-10-17T09:33:28.518Z,15.10
2022-10-17T09:36:05.542Z,15.20
2022-10-17T09:38:41.008Z,15.20
2022-10-17T09:41:42.981Z,15.30
2022-10-17T09:44:21.918Z,15.40
2022-10-17T09:47:20.920Z,15.50
2022-10-17T09:49:51.360Z,15.50
2022-10-17T09:52:21.710Z,15.60
2022-10-17T09:54:52.571Z,15.60
2022-10-17T09:57:22.082Z,15.70
2022-10-17T09:59:58.629Z,15.70
2022-10-17T10:02:28.621Z,15.80
2022-10-17T10:05:06.090Z,15.80
2022-10-17T10:07:37.125Z,15.90
2022-10-17T10:10:07.819Z,15.90
2022-10-17T10:12:38.030Z,16.00
2022-10-17T10:15:32.496Z,16.00
2022-10-17T10:18:00.493Z,16.10
2022-10-17T10:20:33.849Z,16.20
2022-10-17T10:23:15.133Z,16.20
2022-10-17T10:25:57.740Z,16.30
2022-10-17T10:28:29.356Z,16.40
2022-10-17T10:30:59.554Z,16.40
2022-10-17T10:33:30.376Z,16.40
2022-10-17T10:36:03.310Z,16.50
2022-10-17T10:38:33.359Z,16.60
2022-10-17T10:41:05.053Z,16.70
2022-10-17T10:43:38.345Z,16.70
2022-10-17T10:46:17.389Z,16.80
2022-10-17T10:48:52.683Z,16.90
2022-10-17T10:51:28.348Z,16.90
2022-10-17T10:54:02.652Z,17.00
2022-10-17T10:56:35.757Z,17.00
2022-10-17T10:59:11.054Z,17.10
2022-10-17T11:01:46.786Z,17.20
2022-10-17T11:04:31.159Z,17.20
2022-10-17T11:07:05.782Z,17.20
2022-10-17T11:09:45.975Z,17.30
2022-10-17T11:12:21.705Z,17.30
2022-10-17T11:14:56.480Z,17.40
2022-10-17T11:17:35.897Z,17.40
2022-10-17T11:20:15.167Z,17.40
2022-10-17T11:22:48.514Z,17.50
2022-10-17T11:25:25.586Z,17.60
2022-10-17T11:27:53.643Z,17.60
2022-10-17T11:30:24.539Z,17.70
2022-10-17T11:32:57.019Z,17.80
2022-10-17T11:35:28.993Z,17.80
2022-10-17T11:38:07.208Z,17.80
2022-10-17T11:40:39.068Z,17.90
2022-10-17T11:43:14.335Z,18.00
2022-10-17T11:45:45.784Z,18.10
2022-10-17T11:48:22.943Z,18.10
2022-10-17T11:53:56.287Z,18.30
2022-10-17T11:56:31.184Z,18.30
2022-10-17T11:59:14.011Z,18.30
2022-10-17T12:01:47.721Z,18.40
2022-10-17T12:04:30.229Z,18.40
2022-10-17T12:07:11.932Z,18.50
2022-10-17T12:09:47.283Z,18.50
2022-10-17T12:12:27.270Z,18.60
2022-10-17T12:14:55.955Z,18.70
2022-10-17T12:17:34.800Z,18.70
2022-10-17T12:20:28.877Z,18.70
2022-10-17T12:22:58.954Z,18.80
2022-10-17T12:25:32.072Z,18.80
2022-10-17T12:28:13.479Z,18.90
2022-10-17T12:30:52.929Z,18.90
2022-10-17T12:33:23.208Z,19.00
2022-10-17T12:35:52.262Z,19.10
2022-10-17T12:38:28.681Z,19.10
2022-10-17T12:41:06.001Z,19.10
2022-10-17T12:43:58.277Z,19.10
2022-10-17T12:46:49.208Z,19.20
2022-10-17T12:49:42.523Z,19.20
2022-10-17T12:52:25.167Z,19.30
2022-10-17T12:55:10.926Z,19.30
2022-10-17T12:57:54.523Z,19.40
2022-10-17T13:00:29.233Z,19.50
2022-10-17T13:03:04.487Z,19.50
2022-10-17T13:05:35.700Z,19.60
2022-10-17T13:08:06.079Z,19.50
2022-10-17T13:10:40.752Z,19.50
2022-10-17T13:13:17.699Z,19.60
2022-10-17T13:15:50.139Z,19.60
2022-10-17T13:18:24.420Z,19.60
2022-10-17T13:21:02.082Z,19.70
2022-10-17T13:23:37.746Z,19.70
2022-10-17T13:26:15.505Z,19.70
2022-10-17T13:28:45.362Z,19.70
2022-10-17T13:31:31.868Z,19.80
2022-10-17T13:34:01.436Z,19.80
2022-10-17T13:36:31.762Z,19.80
2022-10-17T13:39:02.094Z,19.80
2022-10-17T13:41:36.605Z,19.90
2022-10-17T13:44:18.113Z,19.90
2022-10-17T13:46:48.997Z,20.00
2022-10-17T13:49:23.252Z,20.00
2022-10-17T13:51:56.268Z,20.00
2022-10-17T13:54:40.318Z,20.00
2022-10-17T13:57:19.852Z,20.00
2022-10-17T13:59:53.879Z,20.00
2022-10-17T14:02:24.154Z,20.00
2022-10-17T14:05:16.815Z,20.00
2022-10-17T14:08:10.693Z,20.00
2022-10-17T14:10:41.530Z,20.00
2022-10-17T14:13:22.351Z,20.00
2022-10-17T14:15:52.600Z,20.00
2022-10-17T14:18:23.281Z,19.90
2022-10-17T14:23:44.974Z,19.80
2022-10-17T14:26:16.857Z,19.70
2022-10-17T14:28:47.422Z,19.60
2022-10-17T14:31:34.824Z,19.60
2022-10-17T14:34:04.048Z,19.60
2022-10-17T14:36:39.328Z,19.50
2022-10-17T14:39:16.854Z,19.50
2022-10-17T14:41:46.924Z,19.40
2022-10-17T14:44:20.687Z,19.40
2022-10-17T14:46:54.072Z,19.30
2022-10-17T14:49:27.260Z,19.30
2022-10-17T14:52:27.043Z,19.30
2022-10-17T14:54:55.496Z,19.30
2022-10-17T14:57:30.395Z,19.30
2022-10-17T15:00:00.958Z,19.30
2022-10-17T15:02:31.797Z,19.20
2022-10-17T15:05:00.069Z,19.20
2022-10-17T15:07:28.335Z,19.20
2022-10-17T15:09:56.313Z,19.20
2022-10-17T15:12:26.238Z,19.10
2022-10-17T15:14:54.887Z,19.10
2022-10-17T15:17:26.013Z,19.00
2022-10-17T15:19:55.966Z,19.00
2022-10-17T15:22:24.913Z,18.90
2022-10-17T15:24:52.894Z,18.90
2022-10-17T15:27:22.340Z,18.90
2022-10-17T15:29:51.660Z,18.80
2022-10-17T15:32:19.892Z,18.80
2022-10-17T15:34:48.051Z,18.80
2022-10-17T15:37:22.076Z,18.80
2022-10-17T15:39:53.500Z,18.70
2022-10-17T15:42:23.302Z,18.70
2022-10-17T15:44:51.286Z,18.60
2022-10-17T15:47:25.982Z,18.60
2022-10-17T15:49:54.537Z,18.60
2022-10-17T15:52:24.601Z,18.50
2022-10-17T15:54:53.016Z,18.40
2022-10-17T15:57:22.372Z,18.40
2022-10-17T15:59:51.405Z,18.40
2022-10-17T16:02:21.362Z,18.30
2022-10-17T16:04:50.806Z,18.30
2022-10-17T16:07:19.429Z,18.20
2022-10-17T16:09:49.073Z,18.20
2022-10-17T16:12:19.865Z,18.10
2022-10-17T16:14:48.693Z,18.10
2022-10-17T16:17:17.701Z,18.00
2022-10-17T16:19:45.893Z,18.00
2022-10-17T16:22:24.670Z,18.00
2022-10-17T16:24:58.649Z,17.90
2022-10-17T16:27:27.056Z,17.80
2022-10-17T16:29:54.991Z,17.80
2022-10-17T16:32:22.995Z,17.80
2022-10-17T16:34:51.009Z,17.70
2022-10-17T16:37:19.065Z,17.70
2022-10-17T16:39:52.177Z,17.60
2022-10-17T16:42:22.330Z,17.60
2022-10-17T16:44:50.917Z,17.50
2022-10-17T16:47:19.741Z,17.50
2022-10-17T16:49:47.860Z,17.40
2022-10-17T16:52:16.514Z,17.40
2022-10-17T16:54:44.481Z,17.30
2022-10-17T16:57:12.473Z,17.30
2022-10-17T16:59:42.104Z,17.30
2022-10-17T17:02:12.125Z,17.20
2022-10-17T17:04:40.356Z,17.20
2022-10-17T17:07:08.378Z,17.20
2022-10-17T17:09:36.382Z,17.10
2022-10-17T17:12:04.378Z,17.10
2022-10-17T17:14:32.365Z,17.00
2022-10-17T17:17:01.670Z,17.00
2022-10-17T17:19:29.622Z,16.90
2022-10-17T17:21:57.613Z,16.90
2022-10-17T17:24:25.606Z,16.80
2022-10-17T17:26:55.624Z,16.80
2022-10-17T17:29:25.472Z,16.80
2022-10-17T17:31:53.465Z,16.70
2022-10-17T17:34:22.916Z,16.70
2022-10-17T17:36:50.920Z,16.60
2022-10-17T17:39:18.893Z,16.60
2022-10-17T17:41:47.037Z,16.60
2022-10-17T17:44:16.882Z,16.50
2022-10-17T17:46:45.984Z,16.50
2022-10-17T17:49:14.283Z,16.50
2022-10-17T17:51:46.692Z,16.40
2022-10-17T17:54:15.393Z,16.40
2022-10-17T17:56:43.622Z,16.40
2022-10-17T17:59:13.818Z,16.30
2022-10-17T18:01:42.123Z,16.30
2022-10-17T18:04:10.921Z,16.20
2022-10-17T18:06:39.732Z,16.20
2022-10-17T18:09:10.094Z,16.20
2022-10-17T18:11:39.682Z,16.10
2022-10-17T18:14:11.340Z,16.10
2022-10-17T18:16:39.329Z,16.10
2022-10-17T18:19:08.980Z,16.00
2022-10-17T18:21:37.684Z,16.00
2022-10-17T18:24:06.712Z,15.90
2022-10-17T18:26:36.431Z,15.90
2022-10-17T18:29:05.166Z,15.90
2022-10-17T18:31:35.870Z,15.90
2022-10-17T18:34:05.379Z,15.90
2022-10-17T18:36:34.838Z,15.90
2022-10-17T18:39:03.355Z,15.90
2022-10-17T18:41:31.874Z,15.80
2022-10-17T18:44:02.952Z,15.70
2022-10-17T18:46:35.578Z,15.70
2022-10-17T18:49:03.954Z,15.70
2022-10-17T18:51:31.944Z,15.70
2022-10-17T18:53:59.964Z,15.70
2022-10-17T18:56:28.256Z,15.60
2022-10-17T18:58:56.822Z,15.60
2022-10-17T19:01:28.110Z,15.60
2022-10-17T19:03:58.010Z,15.60
2022-10-17T19:06:27.765Z,15.50
2022-10-17T19:08:55.770Z,15.50
2022-10-17T19:11:25.497Z,15.50
2022-10-17T19:13:54.240Z,15.50
2022-10-17T19:16:30.683Z,15.50
2022-10-17T19:19:00.546Z,15.40
2022-10-17T19:21:28.787Z,15.40
2022-10-17T19:23:59.443Z,15.40
2022-10-17T19:26:29.397Z,15.30
2022-10-17T19:29:00.109Z,15.30
2022-10-17T19:31:31.632Z,15.30
2022-10-17T19:34:00.331Z,15.30
2022-10-17T19:36:33.344Z,15.20
2022-10-17T19:39:02.849Z,15.20
2022-10-17T19:41:31.260Z,15.20
2022-10-17T19:44:00.630Z,15.20
2022-10-17T19:46:31.578Z,15.20
2022-10-17T19:48:59.829Z,15.10
2022-10-17T19:51:29.066Z,15.10
2022-10-17T19:54:00.250Z,15.00
2022-10-17T19:56:30.120Z,15.00
2022-10-17T19:58:58.513Z,15.00
2022-10-17T20:01:32.376Z,15.00
2022-10-17T20:04:00.511Z,15.00
2022-10-17T20:06:28.778Z,14.90
2022-10-17T20:08:57.228Z,14.90
2022-10-17T20:11:26.607Z,14.90
2022-10-17T20:13:55.601Z,14.90
2022-10-17T20:16:27.148Z,14.90
2022-10-17T20:18:58.114Z,14.80
2022-10-17T20:21:31.544Z,14.80
2022-10-17T20:24:01.264Z,14.80
2022-10-17T20:26:38.603Z,14.70
2022-10-17T20:29:11.237Z,14.70
2022-10-17T20:31:40.614Z,14.60
2022-10-17T20:34:13.413Z,14.70
2022-10-17T20:36:41.859Z,14.60
2022-10-17T20:39:11.125Z,14.60
2022-10-17T20:41:39.596Z,14.60
2022-10-17T20:44:08.144Z,14.60
2022-10-17T20:46:38.496Z,14.60
2022-10-17T20:49:15.242Z,14.60
2022-10-17T20:51:43.232Z,14.50
2022-10-17T20:54:11.727Z,14.50
2022-10-17T20:56:40.323Z,14.50
2022-10-17T20:59:12.681Z,14.50
2022-10-17T21:01:41.066Z,14.50
2022-10-17T21:04:40.475Z,14.40
2022-10-17T21:06:58.840Z,14.40
2022-10-17T21:09:28.538Z,14.40
2022-10-17T21:11:57.003Z,14.40
2022-10-17T21:14:26.183Z,14.40
2022-10-17T21:16:54.481Z,14.40
2022-10-17T21:19:23.820Z,14.40
2022-10-17T21:21:51.853Z,14.30
2022-10-17T21:24:22.741Z,14.30
2022-10-17T21:26:55.625Z,14.20
2022-10-17T21:29:24.530Z,14.20
2022-10-17T21:31:52.848Z,14.20
2022-10-17T21:34:25.112Z,14.20
2022-10-17T21:36:53.641Z,14.20
2022-10-17T21:39:24.048Z,14.20
2022-10-17T21:41:53.012Z,14.20
2022-10-17T21:44:23.071Z,14.10
2022-10-17T21:46:51.776Z,14.10
2022-10-17T21:49:22.323Z,14.10
2022-10-17T21:51:52.754Z,14.10
2022-10-17T21:54:22.995Z,14.10
2022-10-17T21:56:51.318Z,14.10
2022-10-17T21:59:19.424Z,14.10
2022-10-17T22:01:47.731Z,14.10
2022-10-17T22:04:17.835Z,14.10
2022-10-17T22:06:47.532Z,14.10
2022-10-17T22:09:19.019Z,14.00
2022-10-17T22:11:48.432Z,14.00
2022-10-17T22:14:19.620Z,14.00
2022-10-17T22:16:49.039Z,14.00
2022-10-17T22:19:19.800Z,14.00
2022-10-17T22:21:47.935Z,14.00
2022-10-17T22:24:19.221Z,14.00
2022-10-17T22:26:47.391Z,13.90
2022-10-17T22:29:15.999Z,13.90
2022-10-17T22:31:44.089Z,13.90
2022-10-17T22:34:14.109Z,13.90
2022-10-17T22:36:42.908Z,14.00
2022-10-17T22:39:11.915Z,14.00
2022-10-17T22:41:41.356Z,13.90
2022-10-17T22:44:09.771Z,13.90
2022-10-17T22:46:37.997Z,13.80
2022-10-17T22:49:06.095Z,13.80
2022-10-17T22:51:34.131Z,13.80
2022-10-17T22:54:02.210Z,13.80
2022-10-17T22:56:30.218Z,13.80
2022-10-17T22:58:59.586Z,13.80
2022-10-17T23:01:27.829Z,13.70
2022-10-17T23:03:55.977Z,13.70
2022-10-17T23:06:24.215Z,13.70
2022-10-17T23:08:52.322Z,13.70
2022-10-17T23:11:20.909Z,13.70
2022-10-17T23:13:49.073Z,13.60
2022-10-17T23:16:18.594Z,13.60
2022-10-17T23:18:46.702Z,13.60
2022-10-17T23:21:14.837Z,13.70
2022-10-17T23:23:42.902Z,13.70
2022-10-17T23:26:13.752Z,13.60
2022-10-17T23:28:42.837Z,13.60
2022-10-17T23:31:13.471Z,13.60
2022-10-17T23:33:42.985Z,13.50
2022-10-17T23:36:12.069Z,13.50
2022-10-17T23:38:40.288Z,13.50
2022-10-17T23:41:09.045Z,13.50
2022-10-17T23:43:37.431Z,13.50
2022-10-17T23:46:06.403Z,13.50
2022-10-17T23:48:34.705Z,13.40
2022-10-17T23:51:04.505Z,13.40
2022-10-17T23:53:32.635Z,13.40
2022-10-17T23:56:00.735Z,13.40
2022-10-17T23:58:28.727Z,13.30
